createdAt,value
2022-12-20T00:00:59.324Z,21.42
2022-12-20T00:02:03.712Z,21.43
2022-12-20T00:03:08.611Z,21.43
2022-12-20T00:04:13.107Z,21.45
2022-12-20T00:05:17.374Z,21.47
2022-12-20T00:06:21.634Z,21.4
2022-12-20T00:07:25.921Z,21.33
2022-12-20T00:08:32.476Z,21.31
2022-12-20T00:09:36.719Z,21.33
2022-12-20T00:10:40.970Z,21.3
2022-12-20T00:11:45.258Z,21.27
2022-12-20T00:12:51.760Z,21.29
2022-12-20T00:13:56.008Z,21.27
2022-12-20T00:15:00.251Z,21.32
2022-12-20T00:16:04.495Z,21.26
2022-12-20T00:17:08.758Z,21.25
2022-12-20T00:18:13.069Z,21.3
2022-12-20T00:19:17.637Z,21.26
2022-12-20T00:20:21.905Z,21.3
2022-12-20T00:21:28.555Z,21.25
2022-12-20T00:22:32.801Z,21.23
2022-12-20T00:23:37.050Z,21.21
2022-12-20T00:24:41.368Z,21.18
2022-12-20T00:25:45.692Z,21.2
2022-12-20T00:26:49.946Z,21.26
2022-12-20T00:27:54.233Z,21.29
2022-12-20T00:28:58.524Z,21.32
2022-12-20T00:30:02.763Z,21.28
2022-12-20T00:31:07.114Z,21.26
2022-12-20T00:32:11.561Z,21.23
2022-12-20T00:33:15.882Z,21.25
2022-12-20T00:34:20.159Z,21.29
2022-12-20T00:35:24.419Z,21.27
2022-12-20T00:36:28.667Z,21.22
2022-12-20T00:37:32.962Z,21.22
2022-12-20T00:38:37.265Z,21.23
2022-12-20T00:39:41.525Z,21.19
2022-12-20T00:40:45.803Z,21.16
2022-12-20T00:41:50.095Z,21.14
2022-12-20T00:42:54.351Z,21.2
2022-12-20T00:43:58.648Z,21.2
2022-12-20T00:45:02.957Z,21.2
2022-12-20T00:46:07.179Z,21.22
2022-12-20T00:47:11.616Z,21.15
2022-12-20T00:48:16.057Z,21.13
2022-12-20T00:49:20.352Z,21.11
2022-12-20T00:50:24.612Z,21.08
2022-12-20T00:51:28.860Z,21.08
2022-12-20T00:52:33.191Z,21.09
2022-12-20T00:53:37.458Z,21.11
2022-12-20T00:54:41.749Z,21.12
2022-12-20T00:55:46.022Z,21.13
2022-12-20T00:56:50.296Z,21.1
2022-12-20T00:57:54.580Z,21.16
2022-12-20T00:58:58.836Z,21.15
2022-12-20T01:00:03.215Z,21.09
2022-12-20T01:01:07.554Z,21.1
2022-12-20T01:02:14.416Z,21.1
2022-12-20T01:03:19.446Z,21.06
2022-12-20T01:04:24.459Z,21.08
2022-12-20T01:05:28.762Z,21.07
2022-12-20T01:06:33.318Z,21.04
2022-12-20T01:07:37.584Z,21.02
2022-12-20T01:08:42.843Z,21.02
2022-12-20T01:09:47.167Z,21.01
2022-12-20T01:10:51.415Z,21.03
2022-12-20T01:11:55.660Z,21
2022-12-20T01:12:59.935Z,21.01
2022-12-20T01:14:04.150Z,21.06
2022-12-20T01:15:08.471Z,21.05
2022-12-20T01:16:13.291Z,21.05
2022-12-20T01:17:17.701Z,21.07
2022-12-20T01:18:21.977Z,21.05
2022-12-20T01:19:26.249Z,21.07
2022-12-20T01:20:30.508Z,21.02
2022-12-20T01:21:34.768Z,21
2022-12-20T01:22:43.835Z,20.98
2022-12-20T01:23:51.391Z,20.99
2022-12-20T01:24:55.671Z,20.99
2022-12-20T01:25:59.956Z,21.01
2022-12-20T01:27:04.256Z,21.01
2022-12-20T01:28:08.541Z,20.99
2022-12-20T01:29:12.894Z,21.01
2022-12-20T01:30:17.152Z,20.98
2022-12-20T01:31:21.419Z,20.96
2022-12-20T01:32:25.992Z,20.94
2022-12-20T01:33:30.228Z,20.98
2022-12-20T01:34:34.484Z,21.03
2022-12-20T01:35:38.783Z,21
2022-12-20T01:36:43.022Z,21.03
2022-12-20T01:37:47.338Z,21
2022-12-20T01:38:51.586Z,21
2022-12-20T01:39:55.842Z,21.03
2022-12-20T01:41:00.141Z,21.03
2022-12-20T01:42:04.411Z,21.03
2022-12-20T01:43:08.670Z,20.98
2022-12-20T01:44:12.907Z,20.96
2022-12-20T01:45:17.232Z,20.95
2022-12-20T01:46:21.607Z,20.95
2022-12-20T01:47:26.108Z,20.96
2022-12-20T01:48:30.388Z,21
2022-12-20T01:49:34.659Z,21
2022-12-20T01:50:38.952Z,21
2022-12-20T01:51:43.214Z,20.99
2022-12-20T01:52:47.496Z,20.95
2022-12-20T01:53:51.768Z,20.91
2022-12-20T01:54:56.089Z,20.9
2022-12-20T01:56:01.358Z,20.89
2022-12-20T01:57:05.781Z,20.93
2022-12-20T01:58:10.048Z,20.91
2022-12-20T01:59:14.369Z,20.88
2022-12-20T02:00:18.686Z,20.87
2022-12-20T02:01:23.335Z,20.91
2022-12-20T02:02:28.232Z,20.92
2022-12-20T02:03:32.997Z,20.89
2022-12-20T02:04:37.422Z,20.91
2022-12-20T02:05:41.692Z,20.9
2022-12-20T02:06:46.050Z,20.93
2022-12-20T02:07:50.309Z,20.89
2022-12-20T02:08:54.884Z,20.91
2022-12-20T02:09:59.157Z,20.88
2022-12-20T02:11:03.433Z,20.84
2022-12-20T02:12:07.695Z,20.86
2022-12-20T02:13:12.228Z,20.87
2022-12-20T02:14:16.527Z,20.85
2022-12-20T02:15:20.773Z,20.85
2022-12-20T02:16:25.097Z,20.91
2022-12-20T02:17:29.648Z,20.93
2022-12-20T02:18:33.897Z,20.94
2022-12-20T02:19:38.143Z,20.94
2022-12-20T02:20:42.371Z,20.91
2022-12-20T02:21:46.671Z,20.9
2022-12-20T02:22:50.921Z,20.92
2022-12-20T02:23:55.178Z,20.93
2022-12-20T02:24:59.419Z,20.9
2022-12-20T02:26:03.799Z,20.88
2022-12-20T02:27:08.053Z,20.85
2022-12-20T02:28:12.345Z,20.87
2022-12-20T02:29:16.618Z,20.88
2022-12-20T02:30:20.938Z,20.86
2022-12-20T02:31:25.275Z,20.86
2022-12-20T02:32:29.735Z,20.88
2022-12-20T02:33:33.964Z,20.84
2022-12-20T02:34:38.251Z,20.86
2022-12-20T02:35:42.515Z,20.85
2022-12-20T02:36:46.776Z,20.84
2022-12-20T02:37:51.040Z,20.87
2022-12-20T02:38:55.290Z,20.88
2022-12-20T02:39:59.596Z,20.9
2022-12-20T02:41:03.923Z,20.91
2022-12-20T02:42:08.159Z,20.88
2022-12-20T02:43:12.432Z,20.84
2022-12-20T02:44:16.710Z,20.8
2022-12-20T02:45:21.066Z,20.84
2022-12-20T02:46:25.371Z,20.86
2022-12-20T02:47:29.935Z,20.85
2022-12-20T02:48:34.265Z,20.86
2022-12-20T02:49:38.623Z,20.89
2022-12-20T02:50:42.892Z,20.87
2022-12-20T02:51:47.171Z,20.81
2022-12-20T02:52:51.463Z,20.81
2022-12-20T02:53:55.710Z,20.78
2022-12-20T02:54:59.947Z,20.75
2022-12-20T02:56:04.228Z,20.77
2022-12-20T02:57:08.473Z,20.8
2022-12-20T02:58:12.729Z,20.79
2022-12-20T02:59:16.982Z,20.79
2022-12-20T03:00:21.235Z,20.82
2022-12-20T03:01:25.594Z,20.83
2022-12-20T03:02:30.401Z,20.81
2022-12-20T03:03:35.483Z,20.8
2022-12-20T03:04:40.033Z,20.81
2022-12-20T03:05:44.301Z,20.81
2022-12-20T03:06:48.549Z,20.81
2022-12-20T03:07:52.842Z,20.8
2022-12-20T03:08:57.133Z,20.81
2022-12-20T03:10:01.400Z,20.78
2022-12-20T03:11:05.647Z,20.75
2022-12-20T03:12:09.915Z,20.77
2022-12-20T03:13:14.226Z,20.77
2022-12-20T03:14:18.523Z,20.77
2022-12-20T03:15:22.836Z,20.74
2022-12-20T03:16:27.161Z,20.73
2022-12-20T03:17:31.540Z,20.76
2022-12-20T03:18:36.630Z,20.76
2022-12-20T03:19:40.965Z,20.79
2022-12-20T03:20:46.291Z,20.8
2022-12-20T03:21:50.574Z,20.77
2022-12-20T03:22:54.828Z,20.78
2022-12-20T03:23:59.094Z,20.77
2022-12-20T03:25:03.387Z,20.77
2022-12-20T03:26:07.818Z,20.76
2022-12-20T03:27:12.102Z,20.72
2022-12-20T03:28:16.452Z,20.73
2022-12-20T03:29:20.689Z,20.73
2022-12-20T03:30:24.971Z,20.7
2022-12-20T03:31:29.337Z,20.74
2022-12-20T03:32:33.878Z,20.73
2022-12-20T03:33:38.119Z,20.7
2022-12-20T03:34:42.400Z,20.71
2022-12-20T03:35:46.629Z,20.71
2022-12-20T03:36:50.890Z,20.71
2022-12-20T03:37:55.219Z,20.71
2022-12-20T03:38:59.497Z,20.71
2022-12-20T03:40:03.738Z,20.69
2022-12-20T03:41:08.008Z,20.69
2022-12-20T03:42:12.275Z,20.69
2022-12-20T03:43:16.522Z,20.69
2022-12-20T03:44:20.830Z,20.69
2022-12-20T03:45:25.454Z,20.7
2022-12-20T03:46:29.821Z,20.7
2022-12-20T03:47:34.682Z,20.64
2022-12-20T03:48:38.967Z,20.62
2022-12-20T03:49:43.279Z,20.61
2022-12-20T03:50:47.518Z,20.59
2022-12-20T03:51:51.772Z,20.59
2022-12-20T03:52:56.031Z,20.57
2022-12-20T03:54:00.348Z,20.58
2022-12-20T03:55:04.794Z,20.58
2022-12-20T03:56:09.069Z,20.64
2022-12-20T03:57:13.342Z,20.66
2022-12-20T03:58:17.625Z,20.67
2022-12-20T03:59:22.000Z,20.65
2022-12-20T04:00:26.259Z,20.61
2022-12-20T04:01:30.683Z,20.64
2022-12-20T04:02:35.525Z,20.63
2022-12-20T04:03:40.630Z,20.65
2022-12-20T04:04:45.119Z,20.61
2022-12-20T04:05:49.373Z,20.59
2022-12-20T04:06:53.649Z,20.63
2022-12-20T04:07:58.178Z,20.63
2022-12-20T04:09:02.480Z,20.61
2022-12-20T04:10:06.771Z,20.6
2022-12-20T04:11:11.024Z,20.6
2022-12-20T04:12:15.302Z,20.59
2022-12-20T04:13:19.584Z,20.56
2022-12-20T04:14:23.867Z,20.55
2022-12-20T04:15:28.255Z,20.57
2022-12-20T04:16:32.839Z,20.58
2022-12-20T04:17:37.401Z,20.63
2022-12-20T04:18:41.684Z,20.58
2022-12-20T04:19:45.972Z,20.57
2022-12-20T04:20:50.211Z,20.58
2022-12-20T04:21:57.919Z,20.56
2022-12-20T04:23:09.347Z,20.61
2022-12-20T04:24:13.630Z,20.58
2022-12-20T04:25:17.953Z,20.57
2022-12-20T04:26:22.176Z,20.58
2022-12-20T04:27:26.444Z,20.56
2022-12-20T04:28:30.707Z,20.54
2022-12-20T04:29:34.955Z,20.53
2022-12-20T04:30:39.210Z,20.52
2022-12-20T04:31:43.450Z,20.52
2022-12-20T04:32:47.946Z,20.53
2022-12-20T04:33:52.216Z,20.51
2022-12-20T04:34:56.595Z,20.54
2022-12-20T04:36:00.860Z,20.52
2022-12-20T04:37:05.144Z,20.51
2022-12-20T04:38:09.408Z,20.52
2022-12-20T04:39:13.658Z,20.5
2022-12-20T04:40:17.902Z,20.51
2022-12-20T04:41:22.581Z,20.5
2022-12-20T04:42:27.005Z,20.49
2022-12-20T04:43:31.281Z,20.48
2022-12-20T04:44:35.592Z,20.5
2022-12-20T04:45:40.273Z,20.48
2022-12-20T04:46:44.557Z,20.49
2022-12-20T04:47:49.085Z,20.52
2022-12-20T04:48:58.677Z,20.49
2022-12-20T04:50:03.790Z,20.51
2022-12-20T04:51:08.138Z,20.5
2022-12-20T04:52:12.676Z,20.49
2022-12-20T04:53:16.940Z,20.54
2022-12-20T04:54:21.189Z,20.56
2022-12-20T04:55:25.497Z,20.59
2022-12-20T04:56:29.829Z,20.59
2022-12-20T04:57:34.130Z,20.59
2022-12-20T04:58:38.430Z,20.61
2022-12-20T04:59:42.660Z,20.66
2022-12-20T05:00:46.943Z,20.71
2022-12-20T05:01:51.283Z,20.78
2022-12-20T05:02:56.074Z,20.84
2022-12-20T05:04:01.074Z,20.89
2022-12-20T05:05:05.583Z,20.95
2022-12-20T05:06:09.931Z,21
2022-12-20T05:07:14.208Z,21.09
2022-12-20T05:08:18.451Z,21.18
2022-12-20T05:09:22.728Z,21.3
2022-12-20T05:10:27.006Z,21.4
2022-12-20T05:11:31.282Z,21.51
2022-12-20T05:12:35.580Z,21.59
2022-12-20T05:13:39.873Z,21.71
2022-12-20T05:14:44.149Z,21.8
2022-12-20T05:15:48.458Z,21.87
2022-12-20T05:16:52.830Z,21.92
2022-12-20T05:17:57.089Z,21.97
2022-12-20T05:19:01.338Z,22.01
2022-12-20T05:20:05.659Z,22.06
2022-12-20T05:21:09.902Z,22.07
2022-12-20T05:22:14.192Z,22.1
2022-12-20T05:23:18.541Z,22.13
2022-12-20T05:24:22.818Z,22.14
2022-12-20T05:25:27.075Z,22.15
2022-12-20T05:26:31.358Z,22.19
2022-12-20T05:27:35.656Z,22.21
2022-12-20T05:28:39.947Z,22.22
2022-12-20T05:29:44.187Z,22.25
2022-12-20T05:30:48.439Z,22.29
2022-12-20T05:31:52.777Z,22.3
2022-12-20T05:32:57.325Z,22.34
2022-12-20T05:34:01.608Z,22.33
2022-12-20T05:35:05.908Z,22.35
2022-12-20T05:36:10.182Z,22.37
2022-12-20T05:37:14.435Z,22.41
2022-12-20T05:38:18.714Z,22.38
2022-12-20T05:39:25.968Z,22.4
2022-12-20T05:40:30.221Z,22.41
2022-12-20T05:41:34.459Z,22.44
2022-12-20T05:42:38.792Z,22.46
2022-12-20T05:43:43.097Z,22.44
2022-12-20T05:44:47.367Z,22.45
2022-12-20T05:45:51.654Z,22.47
2022-12-20T05:46:55.982Z,22.48
2022-12-20T05:48:00.530Z,22.53
2022-12-20T05:49:04.772Z,22.5
2022-12-20T05:50:11.092Z,22.48
2022-12-20T05:51:22.536Z,22.5
2022-12-20T05:52:26.819Z,22.49
2022-12-20T05:53:31.160Z,22.5
2022-12-20T05:54:35.438Z,22.52
2022-12-20T05:55:39.730Z,22.5
2022-12-20T05:56:43.996Z,22.47
2022-12-20T05:57:48.261Z,22.48
2022-12-20T05:58:52.568Z,22.49
2022-12-20T05:59:56.836Z,22.51
2022-12-20T06:01:01.108Z,22.51
2022-12-20T06:02:05.427Z,22.48
2022-12-20T06:03:10.152Z,22.48
2022-12-20T06:04:14.907Z,22.46
2022-12-20T06:05:19.386Z,22.44
2022-12-20T06:06:23.654Z,22.41
2022-12-20T06:07:27.911Z,22.39
2022-12-20T06:08:32.281Z,22.37
2022-12-20T06:09:36.533Z,22.33
2022-12-20T06:10:40.796Z,22.34
2022-12-20T06:11:45.081Z,22.32
2022-12-20T06:12:49.337Z,22.3
2022-12-20T06:13:53.602Z,22.27
2022-12-20T06:14:57.855Z,22.25
2022-12-20T06:16:02.155Z,22.22
2022-12-20T06:17:06.684Z,22.19
2022-12-20T06:18:10.970Z,22.17
2022-12-20T06:19:21.058Z,22.15
2022-12-20T06:20:25.625Z,22.12
2022-12-20T06:21:29.893Z,22.11
2022-12-20T06:22:34.185Z,22.07
2022-12-20T06:23:38.443Z,22.04
2022-12-20T06:24:47.857Z,22.02
2022-12-20T06:25:52.419Z,21.98
2022-12-20T06:26:56.713Z,21.96
2022-12-20T06:28:01.023Z,21.93
2022-12-20T06:29:05.307Z,21.9
2022-12-20T06:30:09.598Z,21.89
2022-12-20T06:31:13.890Z,21.87
2022-12-20T06:32:18.370Z,21.85
2022-12-20T06:33:22.672Z,21.84
2022-12-20T06:34:26.920Z,21.82
2022-12-20T06:35:31.170Z,21.81
2022-12-20T06:36:35.428Z,21.81
2022-12-20T06:37:39.797Z,21.8
2022-12-20T06:38:44.130Z,21.8
2022-12-20T06:39:48.430Z,21.79
2022-12-20T06:40:52.685Z,21.8
2022-12-20T06:41:56.968Z,21.8
2022-12-20T06:43:01.252Z,21.8
2022-12-20T06:44:05.495Z,21.81
2022-12-20T06:45:09.779Z,21.82
2022-12-20T06:46:14.071Z,21.82
2022-12-20T06:47:18.664Z,21.85
2022-12-20T06:48:22.943Z,21.86
2022-12-20T06:49:27.171Z,21.85
2022-12-20T06:50:31.416Z,21.85
2022-12-20T06:51:35.699Z,21.86
2022-12-20T06:52:39.941Z,21.84
2022-12-20T06:53:44.259Z,21.84
2022-12-20T06:54:48.559Z,21.82
2022-12-20T06:55:52.886Z,21.81
2022-12-20T06:56:57.176Z,21.81
2022-12-20T06:58:01.471Z,21.79
2022-12-20T06:59:05.716Z,21.78
2022-12-20T07:00:09.977Z,21.77
2022-12-20T07:01:14.303Z,21.76
2022-12-20T07:02:18.957Z,21.75
2022-12-20T07:03:23.920Z,21.73
2022-12-20T07:04:28.672Z,21.73
2022-12-20T07:05:32.964Z,21.71
2022-12-20T07:06:37.223Z,21.71
2022-12-20T07:07:45.001Z,21.7
2022-12-20T07:08:49.779Z,21.69
2022-12-20T07:09:54.070Z,21.68
2022-12-20T07:10:58.330Z,21.69
2022-12-20T07:12:02.599Z,21.68
2022-12-20T07:13:06.873Z,21.69
2022-12-20T07:14:11.683Z,21.7
2022-12-20T07:15:15.950Z,21.71
2022-12-20T07:16:20.456Z,21.76
2022-12-20T07:17:24.919Z,21.8
2022-12-20T07:18:30.315Z,21.86
2022-12-20T07:19:34.794Z,21.92
2022-12-20T07:20:40.175Z,21.99
2022-12-20T07:21:44.435Z,22.05
2022-12-20T07:22:48.700Z,22.1
2022-12-20T07:23:53.018Z,22.16
2022-12-20T07:24:57.291Z,22.22
2022-12-20T07:26:01.560Z,22.27
2022-12-20T07:27:05.831Z,22.29
2022-12-20T07:28:10.125Z,22.33
2022-12-20T07:29:15.803Z,22.3
2022-12-20T07:30:20.463Z,22.31
2022-12-20T07:31:24.832Z,22.31
2022-12-20T07:32:30.388Z,22.31
2022-12-20T07:33:34.755Z,22.29
2022-12-20T07:34:39.349Z,22.26
2022-12-20T07:35:43.600Z,22.25
2022-12-20T07:36:57.083Z,22.25
2022-12-20T07:38:01.322Z,22.23
2022-12-20T07:39:05.604Z,22.23
2022-12-20T07:40:09.861Z,22.21
2022-12-20T07:41:14.207Z,22.17
2022-12-20T07:42:18.486Z,22.14
2022-12-20T07:43:22.762Z,22.13
2022-12-20T07:44:27.051Z,22.11
2022-12-20T07:45:31.514Z,22.08
2022-12-20T07:46:36.004Z,22.06
2022-12-20T07:47:40.508Z,22.06
2022-12-20T07:48:44.835Z,22.03
2022-12-20T07:49:49.226Z,22.01
2022-12-20T07:50:53.600Z,21.99
2022-12-20T07:51:57.891Z,22
2022-12-20T07:53:02.142Z,21.98
2022-12-20T07:54:06.410Z,21.96
2022-12-20T07:55:10.750Z,21.95
2022-12-20T07:56:15.027Z,21.95
2022-12-20T07:57:19.417Z,21.92
2022-12-20T07:58:24.172Z,21.94
2022-12-20T07:59:28.477Z,21.94
2022-12-20T08:00:32.792Z,21.95
2022-12-20T08:01:38.314Z,21.96
2022-12-20T08:02:43.552Z,22
2022-12-20T08:03:48.583Z,22.03
2022-12-20T08:04:53.054Z,22.07
2022-12-20T08:05:57.373Z,22.13
2022-12-20T08:07:01.622Z,22.17
2022-12-20T08:08:06.183Z,22.23
2022-12-20T08:09:10.497Z,22.27
2022-12-20T08:10:14.722Z,22.34
2022-12-20T08:11:18.993Z,22.38
2022-12-20T08:12:23.258Z,22.39
2022-12-20T08:13:29.251Z,22.42
2022-12-20T08:14:33.516Z,22.41
2022-12-20T08:15:37.778Z,22.42
2022-12-20T08:16:42.168Z,22.41
2022-12-20T08:17:46.615Z,22.39
2022-12-20T08:18:50.877Z,22.38
2022-12-20T08:19:55.135Z,22.38
2022-12-20T08:20:59.408Z,22.36
2022-12-20T08:22:03.744Z,22.36
2022-12-20T08:23:08.045Z,22.34
2022-12-20T08:24:12.340Z,22.34
2022-12-20T08:25:16.625Z,22.34
2022-12-20T08:26:20.871Z,22.29
2022-12-20T08:27:25.195Z,22.27
2022-12-20T08:28:29.476Z,22.25
2022-12-20T08:29:33.718Z,22.22
2022-12-20T08:30:38.360Z,22.21
2022-12-20T08:31:47.735Z,22.19
2022-12-20T08:32:54.430Z,22.18
2022-12-20T08:33:58.670Z,22.23
2022-12-20T08:35:02.919Z,22.24
2022-12-20T08:36:07.242Z,22.19
2022-12-20T08:37:15.100Z,22.15
2022-12-20T08:38:19.600Z,22.09
2022-12-20T08:39:23.888Z,22.04
2022-12-20T08:40:28.176Z,22.01
2022-12-20T08:41:32.502Z,21.97
2022-12-20T08:42:36.768Z,21.91
2022-12-20T08:43:41.222Z,21.88
2022-12-20T08:44:45.491Z,21.87
2022-12-20T08:45:49.808Z,21.83
2022-12-20T08:46:54.131Z,21.81
2022-12-20T08:47:58.388Z,21.77
2022-12-20T08:49:02.685Z,21.74
2022-12-20T08:50:06.968Z,21.72
2022-12-20T08:51:11.250Z,21.71
2022-12-20T08:52:15.820Z,21.7
2022-12-20T08:53:20.119Z,21.71
2022-12-20T08:54:24.394Z,21.72
2022-12-20T08:55:29.193Z,21.74
2022-12-20T08:56:33.952Z,21.77
2022-12-20T08:57:38.227Z,21.85
2022-12-20T08:58:42.539Z,21.93
2022-12-20T08:59:46.855Z,22.01
2022-12-20T09:00:51.107Z,22.08
2022-12-20T09:01:55.461Z,22.14
2022-12-20T09:03:00.407Z,22.2
2022-12-20T09:04:05.527Z,22.22
2022-12-20T09:05:10.072Z,22.26
2022-12-20T09:06:14.310Z,22.25
2022-12-20T09:07:18.612Z,22.25
2022-12-20T09:08:22.922Z,22.25
2022-12-20T09:09:27.177Z,22.23
2022-12-20T09:10:31.509Z,22.21
2022-12-20T09:11:35.765Z,22.19
2022-12-20T09:12:40.031Z,22.17
2022-12-20T09:13:44.826Z,22.17
2022-12-20T09:14:49.236Z,22.17
2022-12-20T09:15:53.536Z,22.15
2022-12-20T09:16:57.966Z,22.15
2022-12-20T09:18:02.276Z,22.17
2022-12-20T09:19:06.918Z,22.17
2022-12-20T09:20:11.300Z,22.18
2022-12-20T09:21:15.553Z,22.17
2022-12-20T09:22:19.865Z,22.16
2022-12-20T09:23:24.257Z,22.12
2022-12-20T09:24:28.540Z,22.11
2022-12-20T09:25:32.824Z,22.08
2022-12-20T09:26:37.068Z,22.07
2022-12-20T09:27:41.381Z,22.06
2022-12-20T09:28:45.721Z,22.06
2022-12-20T09:29:49.973Z,22.05
2022-12-20T09:30:54.307Z,22.03
2022-12-20T09:31:58.790Z,22
2022-12-20T09:33:07.976Z,21.99
2022-12-20T09:34:14.963Z,21.99
2022-12-20T09:35:22.950Z,21.98
2022-12-20T09:36:27.675Z,21.96
2022-12-20T09:37:31.958Z,21.95
2022-12-20T09:38:36.201Z,21.94
2022-12-20T09:39:40.468Z,21.94
2022-12-20T09:40:44.730Z,21.94
2022-12-20T09:41:49.051Z,21.93
2022-12-20T09:42:53.567Z,21.92
2022-12-20T09:43:57.869Z,21.91
2022-12-20T09:45:02.135Z,21.91
2022-12-20T09:46:06.429Z,21.9
2022-12-20T09:47:11.369Z,21.9
2022-12-20T09:48:15.833Z,21.91
2022-12-20T09:49:20.073Z,21.93
2022-12-20T09:50:24.412Z,21.94
2022-12-20T09:51:28.701Z,21.93
2022-12-20T09:52:32.999Z,21.95
2022-12-20T09:53:37.252Z,21.95
2022-12-20T09:54:41.515Z,21.99
2022-12-20T09:55:45.772Z,22.04
2022-12-20T09:56:50.034Z,22.02
2022-12-20T09:57:54.408Z,21.99
2022-12-20T09:58:58.694Z,21.93
2022-12-20T10:00:02.950Z,21.88
2022-12-20T10:01:08.231Z,21.84
2022-12-20T10:02:55.476Z,21.83
2022-12-20T10:04:13.428Z,21.79
2022-12-20T10:05:18.574Z,21.76
2022-12-20T10:06:23.618Z,21.74
2022-12-20T10:07:27.893Z,21.73
2022-12-20T10:08:32.153Z,21.75
2022-12-20T10:09:36.471Z,21.76
2022-12-20T10:10:41.029Z,21.78
2022-12-20T10:11:50.369Z,21.8
2022-12-20T10:12:57.778Z,21.85
2022-12-20T10:14:02.050Z,21.88
2022-12-20T10:15:06.281Z,21.94
2022-12-20T10:16:10.576Z,22
2022-12-20T10:17:15.025Z,22.05
2022-12-20T10:18:19.344Z,22.1
2022-12-20T10:19:23.600Z,22.12
2022-12-20T10:20:27.889Z,22.16
2022-12-20T10:21:32.297Z,22.19
2022-12-20T10:22:36.518Z,22.19
2022-12-20T10:23:40.826Z,22.19
2022-12-20T10:24:45.068Z,22.2
2022-12-20T10:25:49.308Z,22.19
2022-12-20T10:26:53.852Z,22.15
2022-12-20T10:27:58.101Z,22.16
2022-12-20T10:29:02.394Z,22.16
2022-12-20T10:30:06.666Z,22.16
2022-12-20T10:31:10.996Z,22.15
2022-12-20T10:32:15.688Z,22.14
2022-12-20T10:33:19.964Z,22.13
2022-12-20T10:34:24.357Z,22.12
2022-12-20T10:35:38.904Z,22.09
2022-12-20T10:36:43.249Z,22.08
2022-12-20T10:38:06.241Z,22.04
2022-12-20T10:39:12.709Z,22
2022-12-20T10:40:16.983Z,21.97
2022-12-20T10:41:22.890Z,21.94
2022-12-20T10:42:27.498Z,21.92
2022-12-20T10:43:31.768Z,21.9
2022-12-20T10:44:36.099Z,21.9
2022-12-20T10:45:40.404Z,21.89
2022-12-20T10:46:49.026Z,21.88
2022-12-20T10:47:54.550Z,21.87
2022-12-20T10:48:58.805Z,21.84
2022-12-20T10:50:03.122Z,21.82
2022-12-20T10:51:12.062Z,21.81
2022-12-20T10:52:20.331Z,21.8
2022-12-20T10:53:24.665Z,21.77
2022-12-20T10:54:29.435Z,21.81
2022-12-20T10:55:33.719Z,21.87
2022-12-20T10:56:38.032Z,21.85
2022-12-20T10:57:42.281Z,21.84
2022-12-20T10:58:46.521Z,21.83
2022-12-20T10:59:50.763Z,21.8
2022-12-20T11:00:55.080Z,21.82
2022-12-20T11:01:59.552Z,21.83
2022-12-20T11:03:04.467Z,21.81
2022-12-20T11:04:09.819Z,21.78
2022-12-20T11:05:14.346Z,21.77
2022-12-20T11:06:18.699Z,21.77
2022-12-20T11:07:23.018Z,21.78
2022-12-20T11:08:50.026Z,21.79
2022-12-20T11:10:03.457Z,21.85
2022-12-20T11:11:07.869Z,21.93
2022-12-20T11:12:12.124Z,21.98
2022-12-20T11:13:16.402Z,22.06
2022-12-20T11:14:20.647Z,22.11
2022-12-20T11:15:31.718Z,22.15
2022-12-20T11:16:40.308Z,22.21
2022-12-20T11:17:44.782Z,22.25
2022-12-20T11:18:49.078Z,22.29
2022-12-20T11:19:56.346Z,22.31
2022-12-20T11:21:00.623Z,22.33
2022-12-20T11:22:04.876Z,22.32
2022-12-20T11:23:09.115Z,22.32
2022-12-20T11:24:13.368Z,22.32
2022-12-20T11:25:17.701Z,22.3
2022-12-20T11:26:22.007Z,22.27
2022-12-20T11:27:26.311Z,22.27
2022-12-20T11:28:30.619Z,22.26
2022-12-20T11:29:34.883Z,22.24
2022-12-20T11:30:39.159Z,22.22
2022-12-20T11:31:43.837Z,22.2
2022-12-20T11:32:49.180Z,22.18
2022-12-20T11:33:53.555Z,22.15
2022-12-20T11:34:57.826Z,22.14
2022-12-20T11:36:02.087Z,22.11
2022-12-20T11:37:06.351Z,22.09
2022-12-20T11:38:10.641Z,22.07
2022-12-20T11:39:14.991Z,22.06
2022-12-20T11:40:19.358Z,22.04
2022-12-20T11:41:23.939Z,22.02
2022-12-20T11:42:28.598Z,21.99
2022-12-20T11:43:39.193Z,21.98
2022-12-20T11:45:29.818Z,21.96
2022-12-20T11:46:34.531Z,21.94
2022-12-20T11:47:39.006Z,21.91
2022-12-20T11:48:43.283Z,21.91
2022-12-20T11:49:47.512Z,21.89
2022-12-20T11:50:51.813Z,21.88
2022-12-20T11:51:56.090Z,21.87
2022-12-20T11:53:00.373Z,21.84
2022-12-20T11:54:04.631Z,21.86
2022-12-20T11:55:08.909Z,21.83
2022-12-20T11:56:13.207Z,21.8
2022-12-20T11:57:17.430Z,21.8
2022-12-20T11:58:21.718Z,21.78
2022-12-20T11:59:27.403Z,21.78
2022-12-20T12:00:31.718Z,21.75
2022-12-20T12:01:36.194Z,21.74
2022-12-20T12:02:41.335Z,21.75
2022-12-20T12:03:46.921Z,21.76
2022-12-20T12:04:51.322Z,21.79
2022-12-20T12:05:55.774Z,21.85
2022-12-20T12:07:00.084Z,21.89
2022-12-20T12:08:04.353Z,21.94
2022-12-20T12:09:08.603Z,22.01
2022-12-20T12:10:12.868Z,22.04
2022-12-20T12:11:40.278Z,22.08
2022-12-20T12:13:12.259Z,22.1
2022-12-20T12:14:16.521Z,22.1
2022-12-20T12:15:20.768Z,22.1
2022-12-20T12:16:25.054Z,22.1
2022-12-20T12:17:29.575Z,22.1
2022-12-20T12:18:33.881Z,22.08
2022-12-20T12:19:38.152Z,22.08
2022-12-20T12:20:42.414Z,22.08
2022-12-20T12:21:46.697Z,22.05
2022-12-20T12:22:51.020Z,22.03
2022-12-20T12:23:55.299Z,22.01
2022-12-20T12:24:59.545Z,21.99
2022-12-20T12:26:03.816Z,21.98
2022-12-20T12:27:12.882Z,21.95
2022-12-20T12:28:20.078Z,21.92
2022-12-20T12:29:24.347Z,21.9
2022-12-20T12:30:29.287Z,21.88
2022-12-20T12:31:33.575Z,21.85
2022-12-20T12:32:38.030Z,21.84
2022-12-20T12:33:49.166Z,21.82
2022-12-20T12:34:53.706Z,21.79
2022-12-20T12:35:57.999Z,21.78
2022-12-20T12:37:02.278Z,21.78
2022-12-20T12:38:06.583Z,21.77
2022-12-20T12:39:10.904Z,21.74
2022-12-20T12:40:15.367Z,21.75
2022-12-20T12:41:19.924Z,21.73
2022-12-20T12:42:24.167Z,21.72
2022-12-20T12:43:28.477Z,21.74
2022-12-20T12:44:32.759Z,21.73
2022-12-20T12:45:37.071Z,21.73
2022-12-20T12:46:41.663Z,21.72
2022-12-20T12:47:46.143Z,21.72
2022-12-20T12:48:50.397Z,21.71
2022-12-20T12:49:54.696Z,21.73
2022-12-20T12:50:58.991Z,21.74
2022-12-20T12:52:03.252Z,21.76
2022-12-20T12:53:07.527Z,21.79
2022-12-20T12:54:11.783Z,21.82
2022-12-20T12:55:16.030Z,21.9
2022-12-20T12:56:42.457Z,21.98
2022-12-20T12:57:49.748Z,22.06
2022-12-20T12:58:54.030Z,22.12
2022-12-20T12:59:58.283Z,22.18
2022-12-20T13:01:02.575Z,22.23
2022-12-20T13:02:07.388Z,22.25
2022-12-20T13:03:12.427Z,22.28
2022-12-20T13:04:17.282Z,22.29
2022-12-20T13:05:25.814Z,22.29
2022-12-20T13:06:30.425Z,22.27
2022-12-20T13:07:34.712Z,22.25
2022-12-20T13:08:38.942Z,22.24
2022-12-20T13:09:43.249Z,22.22
2022-12-20T13:10:47.506Z,22.22
2022-12-20T13:11:59.602Z,22.2
2022-12-20T13:13:14.247Z,22.17
2022-12-20T13:14:18.490Z,22.16
2022-12-20T13:15:22.916Z,22.14
2022-12-20T13:16:41.990Z,22.11
2022-12-20T13:18:21.729Z,22.08
2022-12-20T13:19:26.031Z,22.06
2022-12-20T13:20:30.347Z,22.04
2022-12-20T13:21:34.609Z,22.03
2022-12-20T13:22:38.879Z,22.01
2022-12-20T13:23:43.125Z,22.01
2022-12-20T13:24:47.452Z,21.98
2022-12-20T13:25:51.853Z,21.97
2022-12-20T13:26:56.181Z,21.94
2022-12-20T13:28:00.640Z,21.93
2022-12-20T13:29:13.833Z,21.93
2022-12-20T13:30:18.090Z,21.91
2022-12-20T13:31:22.476Z,21.89
2022-12-20T13:32:27.077Z,21.9
2022-12-20T13:33:31.398Z,21.87
2022-12-20T13:34:35.652Z,21.86
2022-12-20T13:35:39.949Z,21.83
2022-12-20T13:36:44.203Z,21.84
2022-12-20T13:37:54.280Z,21.84
2022-12-20T13:38:58.893Z,21.84
2022-12-20T13:40:03.278Z,21.84
2022-12-20T13:41:09.730Z,21.86
2022-12-20T13:42:18.559Z,21.89
2022-12-20T13:43:23.856Z,21.94
2022-12-20T13:44:28.164Z,22.02
2022-12-20T13:45:32.572Z,22.12
2022-12-20T13:46:37.079Z,22.23
2022-12-20T13:47:41.381Z,22.33
2022-12-20T13:48:45.629Z,22.43
2022-12-20T13:49:49.994Z,22.51
2022-12-20T13:50:54.308Z,22.58
2022-12-20T13:51:58.577Z,22.67
2022-12-20T13:53:02.850Z,22.72
2022-12-20T13:54:07.107Z,22.77
2022-12-20T13:55:11.346Z,22.8
2022-12-20T13:56:15.626Z,22.81
2022-12-20T13:57:19.867Z,22.8
2022-12-20T13:58:24.136Z,22.81
2022-12-20T13:59:28.488Z,22.8
2022-12-20T14:00:32.817Z,22.78
2022-12-20T14:01:37.624Z,22.78